Time;durP1;ratioP1;P1;durP2;ratioP2;P2;SDS_P1;SDS_P2;PMS_P1;PMS_P2;Temp;Humidity;BMP_temperature;BMP_pressure;BME280_temperature;BME280_humidity;BME280_pressure;Samples;Min_cycle;Max_cycle;Signal;HPM_P1;HPM_P2
2023/06/20 00:02:19;;;;;;;9.33;7.90;;;21.40;91.40;;;21.51;62.99;100731.63;5053444;28;20190;-77
2023/06/20 00:04:53;;;;;;;9.70;8.80;;;21.40;91.40;;;21.46;63.91;100739.66;5053531;28;20622;-77
2023/06/20 00:07:26;;;;;;;9.30;8.50;;;21.40;91.50;;;21.45;63.64;100735.28;5053533;28;20241;-77
2023/06/20 00:09:59;;;;;;;9.27;8.37;;;21.40;91.60;;;21.43;63.63;100748.31;5053392;28;20277;-77
2023/06/20 00:12:33;;;;;;;9.03;8.20;;;21.30;92.00;;;21.48;63.24;100745.69;5053184;28;20309;-77
2023/06/20 00:15:07;;;;;;;9.13;8.23;;;21.40;91.70;;;21.43;63.19;100751.03;5053370;28;20281;-77
2023/06/20 00:17:41;;;;;;;9.30;8.40;;;21.40;91.50;;;21.43;63.48;100751.03;5052967;28;20599;-77
2023/06/20 00:20:16;;;;;;;8.57;7.87;;;21.40;91.50;;;21.44;63.28;100751.88;5053325;28;20186;-76
2023/06/20 00:22:51;;;;;;;9.60;8.70;;;21.40;91.50;;;21.35;63.23;100754.06;5053206;28;20666;-76
2023/06/20 00:25:25;;;;;;;9.17;8.43;;;21.30;91.60;;;21.34;63.53;100760.56;5052948;28;20701;-76
2023/06/20 00:27:59;;;;;;;9.20;8.37;;;21.20;91.80;;;21.25;63.82;100764.69;5052888;28;20660;-76
2023/06/20 00:30:32;;;;;;;9.17;8.33;;;21.20;91.90;;;21.11;63.95;100755.00;5053186;28;20281;-77
2023/06/20 00:33:05;;;;;;;9.13;8.30;;;21.10;92.10;;;21.21;63.92;100763.47;5053596;28;20280;-77
2023/06/20 00:35:39;;;;;;;9.33;8.53;;;21.10;92.10;;;21.12;64.06;100762.97;5052805;28;20241;-77
2023/06/20 00:38:12;;;;;;;9.37;8.47;;;21.00;92.20;;;21.04;64.42;100765.13;5053075;28;20220;-77
2023/06/20 00:40:46;;;;;;;9.20;8.43;;;21.00;92.30;;;21.11;64.29;100758.56;5052635;28;20217;-77
2023/06/20 00:43:20;;;;;;;9.73;8.67;;;21.10;92.30;;;21.01;64.86;100758.25;5052899;28;20313;-77
2023/06/20 00:45:54;;;;;;;10.20;9.20;;;21.00;92.50;;;21.08;63.58;100759.00;5052995;28;20214;-77
2023/06/20 00:48:29;;;;;;;9.70;8.70;;;21.00;92.30;;;21.01;64.36;100754.69;5052986;28;20236;-77
2023/06/20 00:51:03;;;;;;;9.57;8.53;;;21.00;92.40;;;20.90;65.12;100750.00;5052983;28;20229;-77
2023/06/20 00:53:36;;;;;;;10.80;8.97;;;20.80;92.70;;;20.96;64.13;100749.09;5052791;28;20316;-77
2023/06/20 00:56:11;;;;;;;9.13;8.43;;;20.90;92.60;;;20.96;64.23;100749.09;5052873;28;20277;-75
2023/06/20 00:58:45;;;;;;;9.33;8.43;;;20.90;92.60;;;20.93;65.27;100749.53;5052853;28;20185;-77
2023/06/20 01:01:18;;;;;;;9.10;8.40;;;20.90;92.80;;;20.97;64.68;100739.88;5053269;28;20210;-77
2023/06/20 01:03:56;;;;;;;8.70;7.93;;;20.90;92.80;;;20.92;65.06;100737.84;5052495;28;20587;-77
2023/06/20 01:06:48;;;;;;;9.67;8.77;;;20.90;92.90;;;20.82;65.34;100740.28;5052862;28;20195;-77
2023/06/20 01:09:33;;;;;;;10.27;9.37;;;20.80;93.10;;;20.75;65.63;100748.47;5052678;28;20296;-77
2023/06/20 01:12:14;;;;;;;10.93;9.43;;;20.60;93.40;;;20.73;65.72;100745.16;5052365;28;20636;-76
2023/06/20 01:15:01;;;;;;;9.83;9.03;;;20.70;93.50;;;20.78;65.49;100746.38;5052714;28;20297;-77
2023/06/20 01:17:46;;;;;;;9.43;8.73;;;20.80;93.50;;;20.77;65.53;100742.81;5052674;28;20206;-76
2023/06/20 01:20:26;;;;;;;9.97;9.17;;;20.80;93.60;;;20.60;67.08;100749.91;5052604;28;20698;-77
2023/06/20 01:23:09;;;;;;;10.33;9.43;;;20.60;94.10;;;20.58;66.58;100747.41;5052577;28;20291;-77
2023/06/20 01:25:54;;;;;;;10.93;10.03;;;20.60;94.10;;;20.57;66.94;100751.22;5052299;28;20233;-77
2023/06/20 01:28:39;;;;;;;10.70;9.10;;;20.60;94.20;;;20.59;66.49;100748.25;5052257;28;20599;-77
2023/06/20 01:31:17;;;;;;;10.80;9.70;;;20.60;94.10;;;20.52;67.20;100737.44;5052273;28;20285;-77
2023/06/20 01:33:56;;;;;;;10.80;9.87;;;20.60;94.20;;;20.55;66.45;100747.88;5052371;28;20320;-76
2023/06/20 01:36:38;;;;;;;11.00;9.90;;;20.60;94.00;;;20.57;66.89;100756.66;5052547;28;20290;-76
2023/06/20 01:39:16;;;;;;;11.33;10.27;;;20.60;94.10;;;20.50;66.65;100750.44;5052421;28;20581;-76
2023/06/20 01:41:54;;;;;;;10.43;9.53;;;20.50;94.00;;;20.44;66.90;100740.47;5052323;28;20201;-76
2023/06/20 01:44:32;;;;;;;9.90;9.10;;;20.40;94.50;;;20.43;67.51;100752.41;5052109;28;20729;-77
2023/06/20 01:47:10;;;;;;;10.57;9.67;;;20.40;94.60;;;20.38;67.31;100752.22;5054396;28;20281;-77
2023/06/20 01:49:47;;;;;;;12.27;11.00;;;20.40;94.60;;;20.31;67.96;100746.00;5056059;28;20285;-77
2023/06/20 01:52:23;;;;;;;11.37;10.27;;;20.40;94.90;;;20.35;67.86;100743.69;5056147;28;20281;-77
2023/06/20 01:54:58;;;;;;;11.00;10.00;;;20.40;94.90;;;20.35;67.61;100743.69;5055930;28;20210;-77
2023/06/20 01:57:34;;;;;;;10.93;9.83;;;20.30;94.90;;;20.39;66.97;100743.03;5055935;28;20293;-77
2023/06/20 02:00:12;;;;;;;10.73;9.63;;;20.40;94.80;;;20.32;67.85;100742.25;5055871;28;20197;-77
2023/06/20 02:02:48;;;;;;;10.97;9.93;;;20.30;94.80;;;20.34;67.54;100734.72;5055761;28;20312;-77
2023/06/20 02:05:24;;;;;;;11.53;10.53;;;20.40;94.80;;;20.35;68.43;100735.53;5055772;28;20193;-77
2023/06/20 02:08:01;;;;;;;10.87;9.97;;;20.40;95.10;;;20.37;67.12;100738.88;5055696;28;20196;-77
2023/06/20 02:10:35;;;;;;;11.17;10.23;;;20.50;94.70;;;20.33;67.81;100735.78;5055701;28;20280;-77
2023/06/20 02:13:10;;;;;;;10.87;9.97;;;20.40;94.80;;;20.28;67.68;100738.31;5055535;28;20237;-77
2023/06/20 02:15:49;;;;;;;12.17;11.07;;;20.30;95.10;;;20.26;68.58;100740.41;5055411;28;20593;-77
2023/06/20 02:18:24;;;;;;;11.67;10.57;;;20.30;95.30;;;20.24;68.12;100740.59;5055413;28;20555;-77
2023/06/20 02:21:00;;;;;;;12.33;11.23;;;20.30;95.10;;;20.26;68.05;100737.69;5055447;28;20277;-77
2023/06/20 02:23:37;;;;;;;12.10;11.00;;;20.40;95.20;;;20.21;68.34;100751.09;5054991;28;20230;-77
2023/06/20 02:26:16;;;;;;;11.90;10.73;;;20.30;95.30;;;20.10;69.49;100728.19;5055341;28;20233;-77
2023/06/20 02:28:56;;;;;;;12.30;11.20;;;20.20;95.70;;;20.15;68.97;100735.69;5055371;28;20190;-77
2023/06/20 02:31:36;;;;;;;11.83;10.83;;;20.20;95.70;;;20.07;69.18;100716.94;5055001;28;20229;-77
2023/06/20 02:34:15;;;;;;;11.80;10.80;;;20.10;95.90;;;20.02;69.64;100725.78;5055215;28;20291;-76
2023/06/20 02:36:51;;;;;;;11.70;10.70;;;20.10;95.90;;;20.05;69.40;100730.75;5055108;28;20197;-76
2023/06/20 02:39:25;;;;;;;12.13;11.13;;;20.10;95.90;;;20.03;69.43;100732.03;5055508;28;20228;-76
2023/06/20 02:41:59;;;;;;;13.17;11.73;;;20.10;96.10;;;20.05;69.98;100735.34;5055132;28;20244;-77
2023/06/20 02:44:33;;;;;;;12.43;11.33;;;20.10;96.20;;;20.06;69.83;100743.31;5055095;28;20225;-77
2023/06/20 02:47:29;;;;;;;11.80;10.80;;;20.20;96.30;;;20.04;69.38;100747.28;5054883;28;20653;-75
2023/06/20 02:50:12;;;;;;;12.13;11.03;;;20.10;96.00;;;20.04;70.02;100744.56;5055342;28;20201;-77
2023/06/20 02:53:00;;;;;;;14.10;12.80;;;20.10;96.20;;;19.88;70.89;100731.53;5054492;28;20317;-77
2023/06/20 02:55:45;;;;;;;12.30;11.30;;;19.90;96.80;;;19.88;70.90;100739.69;5054766;28;20304;-77
2023/06/20 02:58:22;;;;;;;14.10;12.37;;;19.90;97.00;;;19.90;70.91;100729.44;5054313;28;20266;-77
2023/06/20 03:00:59;;;;;;;13.00;11.90;;;20.00;96.90;;;19.93;70.84;100729.00;5054686;28;20194;-77
2023/06/20 03:03:40;;;;;;;13.10;11.90;;;20.00;96.70;;;19.89;70.71;100730.47;5054570;28;20340;-77
2023/06/20 03:06:17;;;;;;;12.90;11.80;;;20.00;96.80;;;19.83;71.49;100742.25;5054351;28;20640;-77
2023/06/20 03:08:52;;;;;;;13.40;12.20;;;19.90;97.20;;;19.88;70.83;100742.41;5054557;28;20269;-77
2023/06/20 03:11:26;;;;;;;13.33;12.13;;;20.00;97.00;;;19.86;71.09;100737.19;5054235;28;20671;-77
2023/06/20 03:14:03;;;;;;;13.50;12.40;;;20.00;96.90;;;19.84;71.62;100733.03;5054421;28;20261;-77
2023/06/20 03:16:37;;;;;;;13.67;12.47;;;19.90;96.90;;;19.82;71.64;100735.13;5055199;28;20194;-77
2023/06/20 03:19:11;;;;;;;14.03;12.73;;;20.00;97.20;;;19.77;72.05;100748.53;5054408;28;20201;-77
2023/06/20 03:21:45;;;;;;;12.10;11.03;;;19.90;97.50;;;19.76;71.58;100736.81;5054276;28;20225;-77
2023/06/20 03:24:19;;;;;;;11.87;10.87;;;19.90;97.30;;;19.78;71.29;100747.50;5054226;28;20643;-77
2023/06/20 03:26:52;;;;;;;12.67;11.67;;;19.90;97.20;;;19.80;71.29;100748.94;5054265;28;20363;-77
2023/06/20 03:29:25;;;;;;;13.93;12.73;;;19.90;97.20;;;19.71;72.66;100745.66;5054110;28;20218;-77
2023/06/20 03:31:59;;;;;;;13.87;12.67;;;19.90;97.60;;;19.73;72.44;100748.97;5053809;28;20728;-77
2023/06/20 03:34:32;;;;;;;14.97;13.50;;;19.90;97.90;;;19.65;73.55;100743.81;5053974;28;20276;-77
2023/06/20 03:37:05;;;;;;;12.97;11.87;;;19.80;98.10;;;19.75;72.31;100743.34;5054018;28;20273;-77
2023/06/20 03:39:39;;;;;;;13.67;12.47;;;19.90;97.80;;;19.77;72.98;100748.53;5054013;28;20229;-77
2023/06/20 03:42:13;;;;;;;13.33;12.23;;;19.90;97.90;;;19.77;72.90;100748.53;5053499;28;20705;-77
2023/06/20 03:44:47;;;;;;;15.03;13.63;;;19.90;97.90;;;19.69;74.18;100741.50;5053912;28;20269;-77
2023/06/20 03:47:20;;;;;;;12.20;11.10;;;19.90;98.60;;;19.68;72.47;100743.38;5053571;28;20202;-77
2023/06/20 03:49:54;;;;;;;13.87;12.57;;;19.80;97.90;;;19.68;73.67;100751.53;5053771;28;20186;-77
2023/06/20 03:52:27;;;;;;;14.37;13.07;;;19.90;98.50;;;19.66;74.21;100741.91;5053706;28;20240;-77
2023/06/20 03:55:00;;;;;;;13.10;12.00;;;19.80;98.90;;;19.63;74.33;100740.47;5053648;28;20321;-77
2023/06/20 03:57:34;;;;;;;15.23;13.80;;;19.80;99.00;;;19.62;74.54;100744.25;5053640;28;20290;-77
2023/06/20 04:00:11;;;;;;;14.97;13.60;;;19.80;99.00;;;19.56;75.91;100739.69;5053607;28;20201;-77
2023/06/20 04:02:46;;;;;;;13.97;12.77;;;19.80;99.40;;;19.55;74.92;100746.19;5053732;28;20230;-77
2023/06/20 04:05:19;;;;;;;13.93;12.60;;;19.80;99.10;;;19.57;74.80;100748.66;5053550;28;20209;-77
2023/06/20 04:07:53;;;;;;;16.37;14.77;;;19.70;99.10;;;19.51;76.52;100755.81;5053621;28;20230;-77
2023/06/20 04:10:27;;;;;;;13.80;12.67;;;19.70;99.80;;;19.54;75.38;100755.38;5052945;28;20278;-77
2023/06/20 04:13:00;;;;;;;15.53;14.13;;;19.70;99.30;;;19.54;75.69;100758.09;5053650;28;20225;-77
2023/06/20 04:15:33;;;;;;;16.40;14.63;;;19.70;99.60;;;19.51;75.92;100747.69;5053330;28;20210;-77
2023/06/20 04:18:07;;;;;;;16.10;14.60;;;19.70;99.60;;;19.56;75.58;100745.13;5053070;28;20236;-77
2023/06/20 04:20:42;;;;;;;15.53;14.03;;;19.80;99.40;;;19.59;75.68;100747.41;5053310;28;20190;-77
2023/06/20 04:23:15;;;;;;;15.93;14.43;;;19.80;99.40;;;19.60;75.51;100740.94;5053066;28;20261;-77
2023/06/20 04:25:49;;;;;;;17.23;15.67;;;19.80;99.40;;;19.57;75.50;100760.38;5053173;28;20248;-77
2023/06/20 04:28:22;;;;;;;15.47;13.97;;;19.80;99.50;;;19.61;75.60;100761.59;5053166;28;20229;-78
2023/06/20 04:30:55;;;;;;;15.90;14.43;;;19.80;99.60;;;19.66;74.74;100745.47;5052995;28;20232;-77
2023/06/20 04:33:29;;;;;;;13.70;12.40;;;19.90;99.20;;;19.72;74.69;100757.38;5052277;28;20745;-78
2023/06/20 04:36:02;;;;;;;16.03;14.63;;;20.00;99.00;;;19.68;75.84;100751.53;5052621;28;20754;-77
2023/06/20 04:38:37;;;;;;;16.20;14.47;;;19.90;99.50;;;19.72;75.39;100757.38;5053056;28;20190;-77
2023/06/20 04:41:10;;;;;;;16.57;15.07;;;20.00;99.50;;;19.71;75.51;100753.81;5052804;28;20268;-77
2023/06/20 04:43:44;;;;;;;16.80;15.30;;;20.00;99.50;;;19.74;75.35;100745.22;5053152;28;20316;-77
2023/06/20 04:46:17;;;;;;;15.00;13.43;;;20.00;99.40;;;19.79;75.04;100749.16;5053010;28;20191;-77
2023/06/20 04:48:51;;;;;;;16.90;15.23;;;20.00;99.30;;;19.78;75.81;100750.19;5052638;28;20289;-77
2023/06/20 04:51:25;;;;;;;17.57;15.93;;;20.00;99.50;;;19.77;75.83;100759.41;5053242;28;20198;-77
2023/06/20 04:53:59;;;;;;;18.00;16.33;;;20.00;99.50;;;19.82;76.04;100763.13;5052828;28;20230;-77
2023/06/20 04:56:40;;;;;;;15.57;14.07;;;20.10;99.90;;;19.84;75.14;100761.03;5052539;28;20755;-77
2023/06/20 04:59:13;;;;;;;16.63;15.07;;;20.10;99.40;;;19.86;75.25;100763.53;5052546;28;20862;-77
2023/06/20 05:01:51;;;;;;;15.43;13.90;;;20.10;99.30;;;19.89;74.80;100754.94;5052671;28;20293;-77
2023/06/20 05:04:25;;;;;;;20.57;15.70;;;20.20;99.30;;;19.90;75.27;100770.19;5052638;28;20226;-77
2023/06/20 05:07:00;;;;;;;15.23;13.87;;;20.20;99.40;;;19.95;74.65;100773.06;5052887;28;20186;-77
2023/06/20 05:09:34;;;;;;;15.23;13.70;;;20.20;98.90;;;19.96;74.57;100780.19;5052824;28;20197;-77
2023/06/20 05:12:09;;;;;;;15.43;13.97;;;20.20;99.10;;;19.96;75.20;100780.19;5052717;28;20193;-77
2023/06/20 05:14:43;;;;;;;14.47;12.97;;;20.20;99.20;;;19.97;74.85;100774.50;5052761;28;20272;-77
2023/06/20 05:17:17;;;;;;;16.00;14.60;;;20.20;99.10;;;19.95;75.60;100781.22;5052597;28;20210;-77
2023/06/20 05:19:51;;;;;;;13.77;12.43;;;20.20;99.40;;;20.00;74.30;100775.97;5052972;28;20194;-77
2023/06/20 05:22:24;;;;;;;15.97;14.23;;;20.20;98.90;;;19.99;74.70;100779.72;5055144;28;20197;-77
2023/06/20 05:24:58;;;;;;;13.87;12.57;;;20.30;99.00;;;19.98;73.76;100783.50;5056511;28;20190;-77
2023/06/20 05:27:31;;;;;;;15.90;14.30;;;20.20;99.30;;;19.97;75.38;100781.81;5056187;28;20630;-77
2023/06/20 05:30:08;;;;;;;14.50;13.10;;;20.20;99.30;;;20.03;74.24;100786.41;5057322;28;20226;-76
2023/06/20 05:32:41;;;;;;;15.43;13.93;;;20.30;99.00;;;20.04;74.75;100788.03;5057451;28;20307;-76
2023/06/20 05:35:15;;;;;;;15.20;13.50;;;20.30;99.30;;;20.05;75.05;100787.00;5057968;28;20193;-76
2023/06/20 05:37:50;;;;;;;14.67;13.20;;;20.30;99.20;;;20.07;74.94;100793.88;5057812;28;20194;-77
2023/06/20 05:40:23;;;;;;;12.97;11.70;;;20.30;99.10;;;20.08;74.03;100790.09;5057400;28;20202;-76
2023/06/20 05:42:57;;;;;;;14.53;13.13;;;20.40;98.90;;;20.05;74.76;100803.31;5057773;28;20257;-76
2023/06/20 05:45:30;;;;;;;13.50;12.30;;;20.30;99.10;;;20.06;73.98;100797.66;5056220;28;20240;-77
2023/06/20 05:48:04;;;;;;;16.00;14.40;;;20.30;98.80;;;20.04;75.47;100794.31;5056156;28;20226;-77
2023/06/20 05:50:37;;;;;;;12.97;11.67;;;20.30;99.40;;;20.08;73.54;100802.84;5055788;28;20190;-77
2023/06/20 05:53:11;;;;;;;16.33;13.67;;;20.40;98.90;;;20.12;74.62;100806.81;5055912;28;20257;-77
2023/06/20 05:55:44;;;;;;;13.97;12.60;;;20.40;99.20;;;20.13;73.78;100808.47;5055537;28;20671;-77
2023/06/20 05:58:18;;;;;;;13.83;12.30;;;20.40;98.60;;;20.05;74.94;100806.03;5055894;28;20240;-77
2023/06/20 06:00:51;;;;;;;14.93;13.33;;;20.30;99.50;;;20.05;74.84;100809.56;5055830;28;20229;-77
2023/06/20 06:03:25;;;;;;;15.43;14.00;;;20.30;99.20;;;20.06;75.17;100805.81;5055407;28;20735;-77
2023/06/20 06:05:59;;;;;;;14.27;12.73;;;20.30;99.30;;;20.08;75.40;100821.88;5055781;28;20210;-77
2023/06/20 06:08:33;;;;;;;13.60;12.23;;;20.40;99.50;;;20.07;74.98;100847.38;5055675;28;20189;-77
2023/06/20 06:11:07;;;;;;;12.60;11.47;;;20.30;99.30;;;20.12;74.29;100858.44;5055296;28;20185;-77
2023/06/20 06:13:41;;;;;;;15.27;13.60;;;20.40;99.10;;;20.15;75.35;100849.84;5056154;28;20316;-77
2023/06/20 06:16:14;;;;;;;14.97;13.57;;;20.40;99.50;;;20.15;75.82;100845.25;5055461;28;20236;-77
2023/06/20 06:18:47;;;;;;;13.93;12.53;;;20.40;99.70;;;20.17;75.90;100845.06;5055521;28;20187;-77
2023/06/20 06:21:20;;;;;;;13.83;12.37;;;20.40;99.70;;;20.18;76.18;100849.41;5055692;28;20277;-77
2023/06/20 06:23:54;;;;;;;13.80;12.33;;;20.40;99.80;;;20.17;76.20;100837.69;5055393;28;20300;-77
2023/06/20 06:26:28;;;;;;;15.50;13.43;;;20.40;99.90;;;20.18;75.87;100844.81;5055226;28;20637;-77
2023/06/20 06:29:01;;;;;;;14.20;12.80;;;20.50;99.90;;;20.21;75.03;100840.81;5055286;28;20201;-77
2023/06/20 06:31:38;;;;;;;14.77;13.27;;;20.50;99.50;;;20.21;76.35;100830.78;5055045;28;20193;-77
2023/06/20 06:34:16;;;;;;;15.27;13.00;;;20.50;99.80;;;20.24;75.86;100837.66;5055181;28;20321;-77
2023/06/20 06:36:52;;;;;;;14.67;13.17;;;20.50;99.90;;;20.27;76.14;100836.41;5055391;28;20206;-77
2023/06/20 06:39:25;;;;;;;12.87;11.60;;;20.60;99.90;;;20.30;75.15;100836.81;5055205;28;20197;-77
2023/06/20 06:41:59;;;;;;;12.57;11.43;;;20.60;99.30;;;20.32;74.69;100836.59;5054858;28;20253;-77
2023/06/20 06:44:32;;;;;;;12.87;11.67;;;20.60;99.40;;;20.35;74.89;100830.69;5055017;28;20276;-78
2023/06/20 06:47:07;;;;;;;12.93;11.70;;;20.60;99.40;;;20.31;75.86;100827.59;5054769;28;20703;-78
2023/06/20 06:49:40;;;;;;;13.97;12.60;;;20.60;99.50;;;20.34;75.35;100829.88;5054705;28;20598;-78
2023/06/20 06:52:15;;;;;;;12.73;11.43;;;20.60;99.40;;;20.35;75.70;100826.09;5055370;28;20285;-77
2023/06/20 06:54:48;;;;;;;11.83;10.73;;;20.60;99.60;;;20.37;74.57;100825.88;5054959;28;20193;-78
2023/06/20 06:57:22;;;;;;;14.60;12.17;;;20.60;99.40;;;20.37;75.84;100837.59;5054815;28;20246;-78
2023/06/20 06:59:55;;;;;;;12.70;11.17;;;20.60;99.80;;;20.39;75.37;100827.31;5054763;28;20230;-77
2023/06/20 07:02:29;;;;;;;13.43;12.13;;;20.60;99.50;;;20.36;76.47;100825.06;5054336;28;20801;-78
2023/06/20 07:05:04;;;;;;;12.87;11.67;;;20.60;99.80;;;20.37;75.63;100829.44;5054751;28;20194;-78
2023/06/20 07:07:38;;;;;;;12.87;11.70;;;20.60;99.70;;;20.38;76.05;100828.38;5054602;28;20221;-77
2023/06/20 07:10:12;;;;;;;12.40;11.23;;;20.60;99.90;;;20.39;76.87;100830.03;5054579;28;20236;-77
2023/06/20 07:12:46;;;;;;;14.30;11.80;;;20.60;99.90;;;20.39;77.66;100824.59;5054383;28;20230;-78
2023/06/20 07:15:19;;;;;;;12.50;11.13;;;20.60;99.90;;;20.38;77.57;100824.81;5054437;28;20240;-78
2023/06/20 07:17:53;;;;;;;12.13;10.83;;;20.60;99.90;;;20.37;78.34;100821.28;5054374;28;20214;-78
2023/06/20 07:20:26;;;;;;;11.70;10.60;;;20.60;99.90;;;20.37;78.18;100826.72;5054356;28;20197;-78
2023/06/20 07:22:59;;;;;;;11.37;10.23;;;20.60;99.90;;;20.37;78.82;100825.88;5054628;28;20733;-78
2023/06/20 07:25:33;;;;;;;13.37;12.07;;;20.60;99.90;;;20.37;80.32;100825.88;5054488;28;20248;-78
2023/06/20 07:28:07;;;;;;;12.93;11.73;;;20.60;99.90;;;20.37;80.02;100825.88;5054309;28;20281;-77
2023/06/20 07:30:40;;;;;;;11.83;10.63;;;20.60;99.90;;;20.38;79.43;100820.22;5053794;28;20712;-78
2023/06/20 07:33:16;;;;;;;13.63;12.17;;;20.60;99.90;;;20.38;81.87;100817.50;5054116;28;20233;-76
2023/06/20 07:35:49;;;;;;;12.73;11.53;;;20.60;99.90;;;20.40;81.71;100831.72;5053752;28;20218;-76
2023/06/20 07:38:22;;;;;;;12.10;11.10;;;20.60;99.90;;;20.40;81.19;100820.00;5054018;28;20210;-77
2023/06/20 07:40:56;;;;;;;13.27;12.07;;;20.60;99.90;;;20.41;81.50;100818.94;5053839;28;20293;-77
2023/06/20 07:43:29;;;;;;;15.30;13.73;;;20.70;99.90;;;20.40;81.57;100826.28;5053063;28;20777;-77
2023/06/20 07:46:03;;;;;;;14.30;13.10;;;20.70;99.90;;;20.48;82.04;100820.53;5053876;28;20194;-77
2023/06/20 07:48:36;;;;;;;13.10;11.90;;;20.70;99.90;;;20.50;81.87;100815.72;5053546;28;20702;-77
2023/06/20 07:51:11;;;;;;;13.33;12.03;;;20.70;99.90;;;20.46;82.46;100803.63;5053804;28;20213;-77
2023/06/20 07:53:44;;;;;;;12.90;11.80;;;20.70;99.90;;;20.57;82.45;100802.91;5053646;28;20268;-77
2023/06/20 07:56:18;;;;;;;13.83;12.53;;;20.80;99.90;;;20.60;82.20;100813.31;5053352;28;20281;-77
2023/06/20 07:58:51;;;;;;;13.07;11.97;;;20.90;99.90;;;20.62;82.89;100805.75;5053764;28;20222;-77
2023/06/20 08:01:25;;;;;;;13.63;12.37;;;20.90;99.90;;;20.60;81.97;100801.59;5053687;28;20281;-75
2023/06/20 08:03:59;;;;;;;16.17;14.67;;;20.90;99.90;;;20.69;82.90;100792.91;5053674;28;20234;-75
2023/06/20 08:06:32;;;;;;;16.63;14.97;;;21.00;99.90;;;20.72;81.78;100800.63;5053424;28;20190;-75
2023/06/20 08:09:06;;;;;;;13.40;12.00;;;21.00;99.90;;;20.79;80.92;100807.91;5053695;28;20290;-75
2023/06/20 08:11:39;;;;;;;14.67;13.33;;;21.10;99.90;;;20.81;80.74;100801.19;5053332;28;20659;-75
2023/06/20 08:14:13;;;;;;;16.10;14.60;;;21.10;99.90;;;20.84;80.94;100792.56;5053263;28;20778;-75
2023/06/20 08:16:46;;;;;;;14.77;13.50;;;21.10;99.90;;;20.90;80.71;100794.38;5053294;28;20284;-75
2023/06/20 08:19:19;;;;;;;14.13;12.87;;;21.20;99.90;;;20.91;80.19;100795.22;5053429;28;20287;-74
2023/06/20 08:21:53;;;;;;;13.60;12.40;;;21.20;99.90;;;20.94;79.93;100789.31;5054996;28;20187;-74
2023/06/20 08:24:26;;;;;;;15.20;13.70;;;21.20;99.90;;;20.99;80.06;100792.19;5056862;28;20229;-74
2023/06/20 08:27:02;;;;;;;12.80;11.70;;;21.30;99.90;;;21.04;78.60;100784.16;5056830;28;20196;-74
2023/06/20 08:29:36;;;;;;;14.73;13.50;;;21.30;99.90;;;21.04;79.65;100779.56;5056859;28;20272;-74
2023/06/20 08:32:10;;;;;;;13.83;12.60;;;21.40;99.90;;;21.16;79.53;100776.94;5056203;28;20210;-73
2023/06/20 08:34:43;;;;;;;15.03;13.53;;;21.50;99.90;;;21.13;79.36;100771.97;5056193;28;20236;-74
2023/06/20 08:37:17;;;;;;;18.43;16.80;;;21.50;99.90;;;21.23;79.10;100762.16;5053509;28;20665;-74
2023/06/20 08:39:50;;;;;;;31.80;28.80;;;21.50;99.90;;;21.32;79.25;100776.31;5053016;28;20226;-75
2023/06/20 08:42:24;;;;;;;15.13;13.73;;;21.70;99.90;;;21.37;78.63;100779.16;5052926;28;20210;-75
2023/06/20 08:44:58;;;;;;;14.20;12.73;;;21.70;99.90;;;21.44;79.23;100768.22;5053250;28;20218;-75
2023/06/20 08:47:31;;;;;;;14.90;13.40;;;22.10;99.90;;;21.48;78.57;100775.66;5053324;28;20191;-75
2023/06/20 08:50:06;;;;;;;13.53;12.23;;;21.80;99.90;;;21.52;78.93;100776.88;5053332;28;20186;-75
2023/06/20 08:52:48;;;;;;;13.67;12.27;;;21.90;99.90;;;21.53;78.30;100781.28;5052977;28;20320;-75
2023/06/20 08:55:23;;;;;;;12.20;11.10;;;21.90;99.90;;;21.52;77.28;100778.75;5053795;28;20190;-75
2023/06/20 08:57:56;;;;;;;12.43;11.23;;;21.80;99.90;;;21.54;77.31;100774.72;5057304;28;20304;-75
2023/06/20 09:00:30;;;;;;;13.17;11.87;;;21.90;99.90;;;21.57;77.51;100768.84;5057686;28;20563;-75
2023/06/20 09:03:02;;;;;;;12.33;11.10;;;21.90;99.90;;;21.60;76.91;100762.94;5057091;28;20249;-74
2023/06/20 09:05:40;;;;;;;11.90;10.90;;;21.90;99.90;;;21.63;76.60;100775.25;5056914;28;20638;-75
2023/06/20 09:08:15;;;;;;;17.47;15.80;;;21.90;99.90;;;21.63;77.86;100769.81;5057121;28;20273;-75
2023/06/20 09:10:47;;;;;;;17.23;15.60;;;21.90;99.90;;;21.59;77.58;100763.16;5057013;28;20200;-75
2023/06/20 09:13:28;;;;;;;17.83;16.13;;;21.90;99.90;;;21.66;77.92;100767.44;5056910;28;20321;-75
2023/06/20 09:16:09;;;;;;;16.27;14.77;;;22.00;99.90;;;21.70;77.65;100765.09;5057041;28;20610;-75
2023/06/20 09:18:41;;;;;;;15.53;13.97;;;22.00;99.90;;;21.70;76.72;100763.19;5056824;28;20305;-75
2023/06/20 09:21:21;;;;;;;17.73;16.03;;;22.00;99.90;;;21.74;77.16;100758.97;5057107;28;20290;-75
2023/06/20 09:24:03;;;;;;;17.10;15.50;;;22.10;99.90;;;21.79;76.77;100760.13;5057260;28;20225;-74
2023/06/20 09:26:36;;;;;;;14.00;12.77;;;22.10;99.90;;;21.84;76.84;100763.84;5056924;28;20197;-76
2023/06/20 09:29:14;;;;;;;14.23;12.93;;;22.20;99.90;;;21.91;76.07;100769.22;5056737;28;20288;-75
2023/06/20 09:31:49;;;;;;;13.47;12.27;;;22.20;99.90;;;21.95;76.04;100762.22;5056852;28;20274;-76
2023/06/20 09:34:22;;;;;;;14.03;12.83;;;22.30;99.90;;;21.99;75.89;100763.41;5056546;28;20261;-75
2023/06/20 09:36:54;;;;;;;12.87;11.87;;;22.30;99.90;;;22.02;75.28;100766.50;5056267;28;20563;-75
2023/06/20 09:39:32;;;;;;;13.83;12.53;;;22.40;99.80;;;22.07;75.14;100760.34;5056216;28;20626;-75
2023/06/20 09:42:04;;;;;;;13.27;12.07;;;22.40;99.60;;;22.10;74.53;100765.31;5056081;28;20218;-75
2023/06/20 09:44:36;;;;;;;12.30;11.30;;;22.40;99.40;;;22.16;74.87;100772.56;5056392;28;20277;-76
2023/06/20 09:47:08;;;;;;;11.27;10.27;;;22.50;99.60;;;22.21;73.89;100780.88;5056353;28;20268;-76
2023/06/20 09:49:42;;;;;;;10.13;9.30;;;22.50;99.00;;;22.28;73.77;100776.13;5055978;28;20542;-76
2023/06/20 09:52:18;;;;;;;11.20;10.20;;;22.60;99.00;;;22.33;73.38;100773.53;5055964;28;20715;-75
2023/06/20 09:55:00;;;;;;;11.60;10.60;;;22.70;98.70;;;22.41;73.03;100780.53;5056112;28;20193;-75
2023/06/20 09:57:42;;;;;;;10.53;9.70;;;22.80;98.60;;;22.47;72.71;100771.38;5055999;28;20194;-75
2023/06/20 10:00:20;;;;;;;11.90;10.90;;;22.80;98.40;;;22.51;72.43;100776.16;5056127;28;20285;-75
2023/06/20 10:02:58;;;;;;;12.27;11.23;;;22.80;98.10;;;22.60;72.93;100773.91;5055622;28;20797;-75
2023/06/20 10:05:38;;;;;;;11.60;10.40;;;22.90;98.70;;;22.65;71.77;100777.56;5056033;28;20244;-75
2023/06/20 10:08:11;;;;;;;12.00;10.83;;;23.00;98.10;;;22.70;72.22;100775.00;5055414;28;20273;-75
2023/06/20 10:10:44;;;;;;;11.53;10.53;;;23.00;98.10;;;22.73;72.29;100770.94;5055888;28;20269;-75
2023/06/20 10:13:18;;;;;;;105.97;23.27;;;23.00;98.20;;;22.78;72.69;100765.59;5056309;28;20312;-75
2023/06/20 10:15:53;;;;;;;41.97;15.27;;;23.10;98.30;;;22.83;72.29;100762.97;5055599;28;20190;-75
2023/06/20 10:18:39;;;;;;;69.80;18.10;;;23.20;98.10;;;22.92;72.29;100750.59;5055943;28;20214;-75
2023/06/20 10:21:15;;;;;;;51.23;15.23;;;23.20;98.20;;;22.97;71.31;100748.00;5055672;28;20191;-75
2023/06/20 10:23:49;;;;;;;24.67;12.60;;;23.30;97.70;;;23.06;71.70;100746.53;5055705;28;20328;-75
2023/06/20 10:26:36;;;;;;;17.50;11.07;;;23.40;97.80;;;23.11;70.72;100733.00;5055513;28;20198;-75
2023/06/20 10:29:08;;;;;;;10.80;9.57;;;23.40;97.40;;;23.20;71.75;100720.59;5055721;28;20193;-76
2023/06/20 10:32:03;;;;;;;11.10;10.00;;;23.60;97.80;;;23.29;69.30;100712.03;5055592;28;20201;-75
2023/06/20 10:34:39;;;;;;;10.80;9.80;;;23.70;96.50;;;23.42;70.63;100720.78;5055596;28;20194;-75
2023/06/20 10:37:38;;;;;;;10.70;9.00;;;23.80;97.30;;;23.76;68.72;100734.50;5055078;28;20711;-77